Wild Rice, North Dakota
Current Conditions -  °F | °C
As of 6:34 AM on Thursday 23 Oct 2014 (Local Time) from KJKJ Reporting Station
Clear Clear  
Wind Chill:   Ceiling: Unl
Heat Index:   Visibility: 10mi
Dew Point:   Wind: 8mph
Humidity: 100%   Direction: 160°SSE
Pressure: 29.91"   Gusts: NA
Location:  46.7039°N, 96.8572°W
Report Text: KJKJ 231134Z AUTO 16007KT 10SM CLR 06/06 A2991 RMK AO2
Loading
Personal Weather Stations






























Interactive Weather Map
Tropical Storm Tracking
New forecast layout! Learn more

10-Day Weather Forecast

Advertisements
Track Severe Weather on mobile